createdAt,value
2023-01-19T00:01:40.241Z,-2.01
2023-01-19T00:04:06.813Z,-1.98
2023-01-19T00:06:33.491Z,-1.81
2023-01-19T00:09:02.339Z,-1.71
2023-01-19T00:11:31.120Z,-1.75
2023-01-19T00:13:58.807Z,-1.98
2023-01-19T00:16:27.795Z,-2.02
2023-01-19T00:18:54.345Z,-1.93
2023-01-19T00:21:25.549Z,-1.89
2023-01-19T00:23:52.763Z,-1.93
2023-01-19T00:26:22.360Z,-1.98
2023-01-19T00:28:50.293Z,-2.07
2023-01-19T00:31:17.016Z,-2.12
2023-01-19T00:33:48.870Z,-2.49
2023-01-19T00:36:17.660Z,-2.41
2023-01-19T00:38:44.198Z,-2.26
2023-01-19T00:41:10.780Z,-2.26
2023-01-19T00:43:37.327Z,-2.30
2023-01-19T00:46:06.559Z,-2.25
2023-01-19T00:48:37.907Z,-2.26
2023-01-19T00:51:04.762Z,-2.27
2023-01-19T00:53:32.560Z,-2.30
2023-01-19T00:56:03.899Z,-2.33
2023-01-19T00:58:32.703Z,-2.31
2023-01-19T01:01:03.924Z,-2.67
2023-01-19T01:03:32.808Z,-2.50
2023-01-19T01:05:59.564Z,-2.45
2023-01-19T01:08:26.203Z,-2.44
2023-01-19T01:10:52.804Z,-2.45
2023-01-19T01:13:22.504Z,-2.47
2023-01-19T01:15:54.791Z,-2.52
2023-01-19T01:18:24.208Z,-2.54
2023-01-19T01:20:51.329Z,-2.56
2023-01-19T01:23:22.868Z,-2.56
2023-01-19T01:25:49.621Z,-2.68
2023-01-19T01:28:16.138Z,-2.71
2023-01-19T01:30:47.581Z,-2.65
2023-01-19T01:33:16.351Z,-2.66
2023-01-19T01:36:05.129Z,-2.68
2023-01-19T01:38:31.773Z,-2.65
2023-01-19T01:41:00.670Z,-2.72
2023-01-19T01:43:48.600Z,-2.70
2023-01-19T01:46:20.029Z,-2.76
2023-01-19T01:48:54.327Z,-2.83
2023-01-19T01:51:37.288Z,-2.88
2023-01-19T01:54:12.938Z,-3.09
2023-01-19T01:56:45.644Z,-3.42
2023-01-19T01:59:26.156Z,-3.20
2023-01-19T02:02:14.464Z,-3.11
2023-01-19T02:04:50.387Z,-3.10
2023-01-19T02:07:45.256Z,-3.07
2023-01-19T02:10:30.604Z,-3.04
2023-01-19T02:13:16.248Z,-3.07
2023-01-19T02:15:42.802Z,-3.06
2023-01-19T02:18:11.721Z,-2.99
2023-01-19T02:20:40.834Z,-2.93
2023-01-19T02:23:16.587Z,-2.98
2023-01-19T02:25:43.230Z,-3.03
2023-01-19T02:28:10.944Z,-2.97
2023-01-19T02:30:40.908Z,-3.15
2023-01-19T02:33:09.764Z,-3.25
2023-01-19T02:35:40.547Z,-3.30
2023-01-19T02:38:11.176Z,-3.28
2023-01-19T02:40:40.190Z,-3.25
2023-01-19T02:43:09.471Z,-3.28
2023-01-19T02:45:37.742Z,-3.21
2023-01-19T02:48:07.732Z,-3.26
2023-01-19T02:50:50.590Z,-3.27
2023-01-19T02:53:38.546Z,-3.44
2023-01-19T02:56:13.945Z,-3.42
2023-01-19T02:58:49.626Z,-3.40
2023-01-19T03:01:26.131Z,-3.45
2023-01-19T03:04:01.647Z,-3.55
2023-01-19T03:06:57.213Z,-3.54
2023-01-19T03:09:43.318Z,-3.68
2023-01-19T03:12:32.427Z,-3.49
2023-01-19T03:15:05.928Z,-3.38
2023-01-19T03:17:36.170Z,-3.36
2023-01-19T03:20:06.798Z,-3.30
2023-01-19T03:22:38.303Z,-3.35
2023-01-19T03:25:10.350Z,-3.43
2023-01-19T03:27:40.979Z,-3.40
2023-01-19T03:30:22.233Z,-3.40
2023-01-19T03:32:56.652Z,-3.35
2023-01-19T03:35:26.258Z,-3.44
2023-01-19T03:37:56.019Z,-3.48
2023-01-19T03:40:28.975Z,-3.48
2023-01-19T03:42:56.569Z,-3.44
2023-01-19T03:45:26.099Z,-3.51
2023-01-19T03:47:56.375Z,-3.53
2023-01-19T03:50:32.194Z,-3.60
2023-01-19T03:53:10.037Z,-3.56
2023-01-19T03:55:38.550Z,-3.67
2023-01-19T03:58:05.305Z,-3.65
2023-01-19T04:00:32.445Z,-3.97
2023-01-19T04:02:59.428Z,-3.80
2023-01-19T04:05:30.927Z,-3.75
2023-01-19T04:08:00.739Z,-3.66
2023-01-19T04:10:30.319Z,-3.63
2023-01-19T04:13:03.232Z,-3.42
2023-01-19T04:15:32.949Z,-3.35
2023-01-19T04:18:02.910Z,-3.29
2023-01-19T04:20:29.568Z,-3.14
2023-01-19T04:23:01.137Z,-3.04
2023-01-19T04:25:31.680Z,-3.02
2023-01-19T04:27:58.444Z,-3.02
2023-01-19T04:30:27.816Z,-2.92
2023-01-19T04:32:55.526Z,-2.85
2023-01-19T04:35:24.882Z,-2.75
2023-01-19T04:37:51.579Z,-2.76
2023-01-19T04:40:20.928Z,-2.74
2023-01-19T04:42:47.490Z,-2.71
2023-01-19T04:45:17.472Z,-2.53
2023-01-19T04:47:44.097Z,-2.51
2023-01-19T04:50:11.439Z,-2.55
2023-01-19T04:52:42.476Z,-2.52
2023-01-19T04:55:12.845Z,-2.49
2023-01-19T04:57:39.485Z,-2.48
2023-01-19T05:00:07.195Z,-2.49
2023-01-19T05:02:36.748Z,-2.38
2023-01-19T05:05:06.072Z,-2.52
2023-01-19T05:07:32.680Z,-2.94
2023-01-19T05:09:59.319Z,-2.77
2023-01-19T05:12:25.892Z,-2.72
2023-01-19T05:14:52.493Z,-2.87
2023-01-19T05:17:21.198Z,-2.80
2023-01-19T05:19:48.879Z,-2.85
2023-01-19T05:22:19.227Z,-2.92
2023-01-19T05:24:45.799Z,-2.95
2023-01-19T05:27:12.641Z,-3.01
2023-01-19T05:29:39.173Z,-3.01
2023-01-19T05:32:08.102Z,-3.02
2023-01-19T05:34:34.739Z,-3.06
2023-01-19T05:37:03.817Z,-3.13
2023-01-19T05:39:34.048Z,-3.26
2023-01-19T05:42:00.661Z,-3.44
2023-01-19T05:44:27.181Z,-3.41
2023-01-19T05:46:53.862Z,-3.36
2023-01-19T05:49:20.463Z,-3.39
2023-01-19T05:51:49.503Z,-3.33
2023-01-19T05:54:18.765Z,-3.32
2023-01-19T05:56:45.667Z,-3.36
2023-01-19T05:59:15.312Z,-3.35
2023-01-19T06:01:42.010Z,-3.40
2023-01-19T06:04:10.985Z,-3.38
2023-01-19T06:06:42.275Z,-3.38
2023-01-19T06:09:11.394Z,-3.51
2023-01-19T06:11:37.961Z,-3.49
2023-01-19T06:14:07.000Z,-3.42
2023-01-19T06:16:33.659Z,-3.39
2023-01-19T06:19:00.353Z,-3.42
2023-01-19T06:21:32.681Z,-3.37
2023-01-19T06:24:01.539Z,-3.37
2023-01-19T06:26:30.430Z,-3.39
2023-01-19T06:28:59.399Z,-3.30
2023-01-19T06:31:26.038Z,-3.31
2023-01-19T06:33:55.121Z,-3.34
2023-01-19T06:36:21.680Z,-3.33
2023-01-19T06:38:50.773Z,-3.32
2023-01-19T06:41:19.996Z,-3.29
2023-01-19T06:43:51.739Z,-3.25
2023-01-19T06:46:18.273Z,-3.21
2023-01-19T06:48:49.550Z,-3.14
2023-01-19T06:51:16.127Z,-3.14
2023-01-19T06:53:42.699Z,-3.09
2023-01-19T06:56:09.703Z,-3.01
2023-01-19T06:58:36.883Z,-3.02
2023-01-19T07:01:05.205Z,-2.97
2023-01-19T07:03:34.835Z,-2.97
2023-01-19T07:06:02.553Z,-2.96
2023-01-19T07:08:32.668Z,-2.99
2023-01-19T07:11:26.541Z,-3.00
2023-01-19T07:13:57.128Z,-3.04
2023-01-19T07:16:30.962Z,-3.03
2023-01-19T07:18:57.528Z,-2.93
2023-01-19T07:21:29.128Z,-2.93
2023-01-19T07:24:00.637Z,-2.91
2023-01-19T07:26:28.027Z,-2.96
2023-01-19T07:28:54.951Z,-2.96
2023-01-19T07:31:21.541Z,-3.07
2023-01-19T07:33:48.245Z,-3.04
2023-01-19T07:36:17.146Z,-3.11
2023-01-19T07:38:43.716Z,-3.11
2023-01-19T07:41:13.271Z,-3.03
2023-01-19T07:43:39.977Z,-2.94
2023-01-19T07:46:09.318Z,-2.97
2023-01-19T07:48:38.181Z,-3.02
2023-01-19T07:51:10.461Z,-2.94
2023-01-19T07:53:41.993Z,-2.94
2023-01-19T07:56:08.908Z,-2.86
2023-01-19T07:58:40.734Z,-2.86
2023-01-19T08:01:14.603Z,-2.77
2023-01-19T08:03:41.348Z,-2.73
2023-01-19T08:06:27.018Z,-2.71
2023-01-19T08:08:53.574Z,-2.65
2023-01-19T08:11:20.136Z,-2.72
2023-01-19T08:13:49.493Z,-2.68
2023-01-19T08:16:18.981Z,-2.66
2023-01-19T08:18:48.431Z,-2.64
2023-01-19T08:21:19.716Z,-2.73
2023-01-19T08:23:57.828Z,-2.86
2023-01-19T08:26:31.423Z,-2.72
2023-01-19T08:29:03.488Z,-2.69
2023-01-19T08:31:30.247Z,-2.71
2023-01-19T08:33:59.660Z,-2.70
2023-01-19T08:36:26.244Z,-2.69
2023-01-19T08:38:55.325Z,-2.70
2023-01-19T08:41:22.337Z,-2.65
2023-01-19T08:43:52.138Z,-2.41
2023-01-19T08:46:21.978Z,-2.36
2023-01-19T08:48:51.469Z,-2.38
2023-01-19T08:51:21.154Z,-2.41
2023-01-19T08:53:50.297Z,-2.42
2023-01-19T08:56:18.551Z,-2.33
2023-01-19T08:58:53.665Z,-2.24
2023-01-19T09:01:30.109Z,-2.12
2023-01-19T09:03:59.674Z,-2.08
2023-01-19T09:06:26.300Z,-2.23
2023-01-19T09:08:55.845Z,-2.17
2023-01-19T09:11:24.724Z,-1.96
2023-01-19T09:13:53.469Z,-1.95
2023-01-19T09:16:20.062Z,-1.82
2023-01-19T09:18:46.657Z,-1.66
2023-01-19T09:21:15.497Z,-1.69
2023-01-19T09:23:44.646Z,-1.21
2023-01-19T09:26:11.500Z,-0.95
2023-01-19T09:28:38.409Z,-0.98
2023-01-19T09:31:09.189Z,-0.70
2023-01-19T09:33:38.223Z,-1.15
2023-01-19T09:36:05.063Z,-1.19
2023-01-19T09:38:32.899Z,-1.19
2023-01-19T09:41:00.615Z,-1.17
2023-01-19T09:43:50.748Z,-1.45
2023-01-19T09:46:27.400Z,-1.56
2023-01-19T09:49:04.786Z,-1.31
2023-01-19T09:51:39.470Z,-1.79
2023-01-19T09:54:29.862Z,-1.86
2023-01-19T09:56:56.436Z,-1.70
2023-01-19T09:59:31.520Z,-1.44
2023-01-19T10:02:28.176Z,-1.71
2023-01-19T10:05:22.341Z,-1.85
2023-01-19T10:08:26.749Z,-1.73
2023-01-19T10:10:55.412Z,-1.60
2023-01-19T10:13:52.302Z,-1.76
2023-01-19T10:16:53.198Z,-1.48
2023-01-19T10:19:25.113Z,-1.59
2023-01-19T10:21:55.373Z,-1.38
2023-01-19T10:24:33.184Z,-1.22
2023-01-19T10:27:02.257Z,-1.24
2023-01-19T10:29:37.296Z,-1.29
2023-01-19T10:32:09.037Z,-1.15
2023-01-19T10:34:38.871Z,-1.05
2023-01-19T10:37:16.004Z,-1.18
2023-01-19T10:39:44.082Z,-0.89
2023-01-19T10:42:15.291Z,-0.67
2023-01-19T10:44:42.142Z,-0.96
2023-01-19T10:47:17.993Z,-0.80
2023-01-19T10:49:45.290Z,-0.77
2023-01-19T10:52:35.740Z,-0.91
2023-01-19T10:55:07.041Z,-0.77
2023-01-19T10:57:43.366Z,-0.52
2023-01-19T11:00:38.098Z,-0.23
2023-01-19T11:03:25.309Z,-0.56
2023-01-19T11:05:54.373Z,-0.68
2023-01-19T11:08:29.725Z,-0.78
2023-01-19T11:11:03.747Z,-0.64
2023-01-19T11:13:31.788Z,-0.27
2023-01-19T11:16:05.364Z,-0.37
2023-01-19T11:18:31.866Z,-0.47
2023-01-19T11:21:02.346Z,-0.35
2023-01-19T11:23:31.217Z,-0.23
2023-01-19T11:26:05.190Z,-0.07
2023-01-19T11:28:31.662Z,0.15
2023-01-19T11:31:04.009Z,0.24
2023-01-19T11:33:37.483Z,0.14
2023-01-19T11:36:30.223Z,0.35
2023-01-19T11:39:19.298Z,0.28
2023-01-19T11:41:53.156Z,0.32
2023-01-19T11:44:26.370Z,0.45
2023-01-19T11:46:58.556Z,0.58
2023-01-19T11:49:43.817Z,0.54
2023-01-19T11:52:31.437Z,0.38
2023-01-19T11:55:11.293Z,0.09
2023-01-19T11:57:43.228Z,0.00
2023-01-19T12:00:25.134Z,-0.07
2023-01-19T12:02:59.425Z,-0.06
2023-01-19T12:05:32.268Z,-0.04
2023-01-19T12:08:07.118Z,0.02
2023-01-19T12:10:38.325Z,0.15
2023-01-19T12:13:13.060Z,0.25
2023-01-19T12:15:43.040Z,0.34
2023-01-19T12:18:18.251Z,0.46
2023-01-19T12:20:48.733Z,0.50
2023-01-19T12:23:15.287Z,0.50
2023-01-19T12:26:08.534Z,0.61
2023-01-19T12:28:40.414Z,0.58
2023-01-19T12:31:09.808Z,0.64
2023-01-19T12:33:39.144Z,0.94
2023-01-19T12:36:12.174Z,1.09
2023-01-19T12:38:52.868Z,0.95
2023-01-19T12:41:28.562Z,0.64
2023-01-19T12:44:19.274Z,0.86
2023-01-19T12:46:50.705Z,0.68
2023-01-19T12:49:23.948Z,0.73
2023-01-19T12:51:55.998Z,0.78
2023-01-19T12:54:34.553Z,0.74
2023-01-19T12:57:08.162Z,0.85
2023-01-19T12:59:37.495Z,0.90
2023-01-19T13:02:41.994Z,0.86
2023-01-19T13:05:15.011Z,0.92
2023-01-19T13:08:03.489Z,0.97
2023-01-19T13:11:05.748Z,1.00
2023-01-19T13:13:52.926Z,1.04
2023-01-19T13:16:19.736Z,0.99
2023-01-19T13:18:47.952Z,1.05
2023-01-19T13:21:34.910Z,1.20
2023-01-19T13:24:02.489Z,0.93
2023-01-19T13:26:30.755Z,0.98
2023-01-19T13:29:08.296Z,1.05
2023-01-19T13:31:43.004Z,1.06
2023-01-19T13:34:17.112Z,1.05
2023-01-19T13:36:50.868Z,0.95
2023-01-19T13:39:22.413Z,1.02
2023-01-19T13:41:53.337Z,0.95
2023-01-19T13:44:25.478Z,0.90
2023-01-19T13:46:53.592Z,0.93
2023-01-19T13:49:29.673Z,0.94
2023-01-19T13:52:13.834Z,0.91
2023-01-19T13:54:53.548Z,1.01
2023-01-19T13:57:30.754Z,0.99
2023-01-19T14:00:12.675Z,0.98
2023-01-19T14:02:52.416Z,0.90
2023-01-19T14:05:41.775Z,0.93
2023-01-19T14:08:11.355Z,0.89
2023-01-19T14:10:41.245Z,0.87
2023-01-19T14:13:29.458Z,0.97
2023-01-19T14:16:02.915Z,0.97
2023-01-19T14:18:34.843Z,0.96
2023-01-19T14:21:11.957Z,0.96
2023-01-19T14:23:48.823Z,0.84
2023-01-19T14:26:56.781Z,0.87
2023-01-19T14:29:38.492Z,0.86
2023-01-19T14:32:13.691Z,0.84
2023-01-19T14:34:44.969Z,0.84
2023-01-19T14:37:32.581Z,0.87
2023-01-19T14:40:15.876Z,0.83
2023-01-19T14:42:42.346Z,0.81
2023-01-19T14:45:22.485Z,0.72
2023-01-19T14:47:57.016Z,0.71
2023-01-19T14:50:31.654Z,0.63
2023-01-19T14:53:04.253Z,0.67
2023-01-19T14:55:49.961Z,0.61
2023-01-19T14:58:22.803Z,0.59
2023-01-19T15:00:56.067Z,0.60
2023-01-19T15:03:42.694Z,0.54
2023-01-19T15:06:14.783Z,0.53
2023-01-19T15:08:41.498Z,0.41
2023-01-19T15:11:23.956Z,0.42
2023-01-19T15:13:50.972Z,0.38
2023-01-19T15:16:18.308Z,0.34
2023-01-19T15:18:47.584Z,0.23
2023-01-19T15:21:26.397Z,0.14
2023-01-19T15:23:54.437Z,0.15
2023-01-19T15:26:23.980Z,-0.01
2023-01-19T15:28:53.129Z,-0.03
2023-01-19T15:31:25.301Z,-0.01
2023-01-19T15:33:51.935Z,-0.12
2023-01-19T15:36:21.222Z,-0.03
2023-01-19T15:38:50.832Z,-0.10
2023-01-19T15:41:30.557Z,-0.06
2023-01-19T15:43:57.513Z,-0.11
2023-01-19T15:46:25.829Z,-0.20
2023-01-19T15:48:53.404Z,-0.29
2023-01-19T15:51:25.915Z,-0.59
2023-01-19T15:53:53.676Z,-0.55
2023-01-19T15:56:24.767Z,-0.68
2023-01-19T15:58:52.442Z,-0.86
2023-01-19T16:01:21.701Z,-1.02
2023-01-19T16:03:49.512Z,-1.18
2023-01-19T16:06:18.408Z,-1.23
2023-01-19T16:08:45.232Z,-1.18
2023-01-19T16:11:14.755Z,-1.18
2023-01-19T16:13:46.191Z,-1.26
2023-01-19T16:16:21.060Z,-1.13
2023-01-19T16:18:48.001Z,-1.16
2023-01-19T16:21:14.739Z,-1.15
2023-01-19T16:23:41.969Z,-1.14
2023-01-19T16:26:25.301Z,-1.19
2023-01-19T16:28:51.910Z,-1.38
2023-01-19T16:31:18.566Z,-1.30
2023-01-19T16:33:45.358Z,-1.31
2023-01-19T16:36:47.492Z,-1.48
2023-01-19T16:39:15.169Z,-1.72
2023-01-19T16:41:44.771Z,-1.61
2023-01-19T16:44:15.136Z,-1.62
2023-01-19T16:46:45.604Z,-1.62
2023-01-19T16:49:16.470Z,-1.66
2023-01-19T16:51:43.523Z,-1.73
2023-01-19T16:54:19.517Z,-1.72
2023-01-19T16:56:46.671Z,-1.72
2023-01-19T16:59:14.917Z,-1.78
2023-01-19T17:01:42.460Z,-1.90
2023-01-19T17:04:11.385Z,-1.89
2023-01-19T17:06:40.303Z,-1.95
2023-01-19T17:09:09.415Z,-1.98
2023-01-19T17:11:36.900Z,-1.96
2023-01-19T17:14:12.511Z,-2.14
2023-01-19T17:16:42.459Z,-2.12
2023-01-19T17:19:15.292Z,-2.15
2023-01-19T17:21:46.371Z,-2.19
2023-01-19T17:24:12.997Z,-2.22
2023-01-19T17:26:39.585Z,-2.21
2023-01-19T17:29:10.849Z,-2.27
2023-01-19T17:31:40.169Z,-2.35
2023-01-19T17:34:06.898Z,-2.38
2023-01-19T17:36:36.212Z,-2.38
2023-01-19T17:39:11.277Z,-2.40
2023-01-19T17:41:37.849Z,-2.40
2023-01-19T17:44:09.546Z,-2.42
2023-01-19T17:46:38.024Z,-2.44
2023-01-19T17:49:08.226Z,-2.46
2023-01-19T17:51:35.096Z,-2.52
2023-01-19T17:54:06.439Z,-2.52
2023-01-19T17:56:37.628Z,-2.58
2023-01-19T17:59:07.644Z,-2.59
2023-01-19T18:01:40.067Z,-2.66
2023-01-19T18:04:08.167Z,-2.65
2023-01-19T18:06:37.497Z,-2.73
2023-01-19T18:09:06.929Z,-2.71
2023-01-19T18:11:36.257Z,-2.76
2023-01-19T18:14:03.228Z,-2.83
2023-01-19T18:16:32.541Z,-2.88
2023-01-19T18:18:59.168Z,-2.94
2023-01-19T18:21:28.222Z,-2.93
2023-01-19T18:24:03.223Z,-2.86
2023-01-19T18:26:31.465Z,-2.80
2023-01-19T18:29:01.380Z,-2.85
2023-01-19T18:31:30.421Z,-2.89
2023-01-19T18:33:59.632Z,-2.87
2023-01-19T18:36:26.653Z,-2.91
2023-01-19T18:38:56.271Z,-2.97
2023-01-19T18:41:25.243Z,-3.02
2023-01-19T18:43:55.205Z,-3.04
2023-01-19T18:46:27.469Z,-3.11
2023-01-19T18:48:56.636Z,-3.22
2023-01-19T18:51:25.703Z,-3.25
2023-01-19T18:53:58.226Z,-3.32
2023-01-19T18:56:27.241Z,-3.32
2023-01-19T18:58:54.329Z,-3.37
2023-01-19T19:01:23.519Z,-3.36
2023-01-19T19:03:51.035Z,-3.27
2023-01-19T19:06:20.683Z,-3.42
2023-01-19T19:08:53.975Z,-3.60
2023-01-19T19:11:25.005Z,-3.62
2023-01-19T19:13:58.435Z,-3.67
2023-01-19T19:16:27.781Z,-3.61
2023-01-19T19:18:54.541Z,-3.50
2023-01-19T19:21:24.014Z,-3.52
2023-01-19T19:23:57.709Z,-3.52
2023-01-19T19:26:25.846Z,-3.47
2023-01-19T19:28:52.408Z,-3.52
2023-01-19T19:31:21.237Z,-3.59
2023-01-19T19:33:53.929Z,-3.67
2023-01-19T19:36:24.078Z,-3.63
2023-01-19T19:38:50.745Z,-3.71
2023-01-19T19:41:23.323Z,-3.76
2023-01-19T19:43:50.614Z,-3.80
2023-01-19T19:46:21.842Z,-3.94
2023-01-19T19:48:49.530Z,-3.80
2023-01-19T19:51:29.948Z,-3.87
2023-01-19T19:54:00.634Z,-3.90
2023-01-19T19:56:30.051Z,-3.87
2023-01-19T19:58:58.948Z,-3.85
2023-01-19T20:01:32.666Z,-3.91
2023-01-19T20:04:08.798Z,-3.91
2023-01-19T20:06:39.834Z,-4.04
2023-01-19T20:09:09.026Z,-4.06
2023-01-19T20:11:38.864Z,-4.07
2023-01-19T20:14:11.881Z,-4.05
2023-01-19T20:16:43.297Z,-4.09
2023-01-19T20:19:12.221Z,-4.03
2023-01-19T20:21:44.124Z,-4.01
2023-01-19T20:24:18.360Z,-4.05
2023-01-19T20:26:52.578Z,-4.13
2023-01-19T20:29:20.349Z,-4.15
2023-01-19T20:31:50.306Z,-4.14
2023-01-19T20:34:22.082Z,-4.09
2023-01-19T20:36:50.347Z,-4.30
2023-01-19T20:39:18.623Z,-4.30
2023-01-19T20:41:50.863Z,-4.20
2023-01-19T20:44:20.895Z,-4.22
2023-01-19T20:46:47.799Z,-4.23
2023-01-19T20:49:17.155Z,-4.31
2023-01-19T20:51:46.036Z,-4.37
2023-01-19T20:54:17.622Z,-4.37
2023-01-19T20:56:44.292Z,-4.48
2023-01-19T20:59:13.816Z,-4.65
2023-01-19T21:01:41.017Z,-4.65
2023-01-19T21:04:08.572Z,-4.62
2023-01-19T21:06:35.932Z,-4.56
2023-01-19T21:09:03.231Z,-4.59
2023-01-19T21:11:30.123Z,-4.53
2023-01-19T21:13:59.445Z,-4.57
2023-01-19T21:16:28.359Z,-4.57
2023-01-19T21:18:55.362Z,-4.60
2023-01-19T21:21:30.883Z,-4.54
2023-01-19T21:24:02.459Z,-4.59
2023-01-19T21:26:31.650Z,-4.63
2023-01-19T21:29:04.573Z,-4.62
2023-01-19T21:31:33.681Z,-4.59
2023-01-19T21:34:02.598Z,-4.51
2023-01-19T21:36:31.381Z,-4.55
2023-01-19T21:39:00.727Z,-4.47
2023-01-19T21:41:32.070Z,-4.53
2023-01-19T21:44:00.371Z,-4.65
2023-01-19T21:46:29.600Z,-4.76
2023-01-19T21:49:02.924Z,-5.01
2023-01-19T21:51:33.469Z,-5.09
2023-01-19T21:54:05.292Z,-5.26
2023-01-19T21:56:32.221Z,-5.29
2023-01-19T21:59:02.209Z,-5.40
2023-01-19T22:01:29.398Z,-5.10
2023-01-19T22:04:01.867Z,-5.06
2023-01-19T22:06:28.810Z,-5.14
2023-01-19T22:08:57.836Z,-5.07
2023-01-19T22:11:24.920Z,-5.04
2023-01-19T22:13:51.841Z,-5.02
2023-01-19T22:16:20.711Z,-5.00
2023-01-19T22:18:54.064Z,-5.07
2023-01-19T22:21:35.600Z,-5.14
2023-01-19T22:24:07.539Z,-5.20
2023-01-19T22:26:35.016Z,-5.17
2023-01-19T22:29:11.253Z,-5.20
2023-01-19T22:31:43.167Z,-5.23
2023-01-19T22:34:10.824Z,-5.32
2023-01-19T22:36:41.907Z,-5.20
2023-01-19T22:39:15.250Z,-5.24
2023-01-19T22:41:46.239Z,-5.39
2023-01-19T22:44:21.182Z,-5.43
2023-01-19T22:46:49.407Z,-5.55
2023-01-19T22:49:20.159Z,-5.48
2023-01-19T22:51:54.046Z,-5.43
2023-01-19T22:54:23.006Z,-5.45
2023-01-19T22:56:49.756Z,-5.43
2023-01-19T22:59:18.557Z,-5.48
2023-01-19T23:01:45.671Z,-5.53
2023-01-19T23:04:17.569Z,-5.62
2023-01-19T23:06:50.447Z,-5.62
2023-01-19T23:09:17.719Z,-5.58
2023-01-19T23:11:50.259Z,-5.58
2023-01-19T23:14:20.143Z,-5.53
2023-01-19T23:16:47.261Z,-5.64
2023-01-19T23:19:21.194Z,-5.63
2023-01-19T23:21:53.162Z,-5.61
2023-01-19T23:24:19.831Z,-5.68
2023-01-19T23:26:48.381Z,-5.64
2023-01-19T23:29:18.186Z,-5.65
2023-01-19T23:31:47.239Z,-5.65
2023-01-19T23:34:19.474Z,-5.75
2023-01-19T23:36:48.373Z,-5.69
2023-01-19T23:39:24.048Z,-5.83
2023-01-19T23:41:50.945Z,-5.75
2023-01-19T23:44:20.018Z,-5.76
2023-01-19T23:46:46.956Z,-5.79
2023-01-19T23:49:13.637Z,-5.73
2023-01-19T23:51:40.861Z,-5.75
2023-01-19T23:54:07.697Z,-5.64
2023-01-19T23:56:36.612Z,-6.22
2023-01-19T23:59:10.527Z,-6.28
